Time;durP1;ratioP1;P1;durP2;ratioP2;P2;SDS_P1;SDS_P2;PMS_P1;PMS_P2;Temp;Humidity;BMP_temperature;BMP_pressure;BME280_temperature;BME280_humidity;BME280_pressure;Samples;Min_cycle;Max_cycle;Signal;HPM_P1;HPM_P2
2022/05/29 00:01:45;;;;;;;3.13;1.65;;;;;;;12.70;88.22;99887.28;5011113;28;20448;-63
2022/05/29 00:04:10;;;;;;;5.70;2.30;;;;;;;12.75;87.58;99868.44;5010922;28;20109;-63
2022/05/29 00:06:40;;;;;;;5.85;1.67;;;;;;;12.87;86.75;99878.56;5010980;28;20026;-64
2022/05/29 00:09:08;;;;;;;5.05;1.80;;;;;;;12.59;88.23;99884.22;5010916;28;20502;-63
2022/05/29 00:11:34;;;;;;;3.47;1.58;;;;;;;12.84;88.10;99879.56;5010677;28;20038;-63
2022/05/29 00:14:00;;;;;;;5.13;2.15;;;;;;;12.87;87.81;99878.56;5009722;28;20026;-64
2022/05/29 00:16:30;;;;;;;3.17;1.70;;;;;;;12.91;87.51;99870.38;5009493;28;20104;-63
2022/05/29 00:18:55;;;;;;;3.33;2.22;;;;;;;12.94;87.36;99872.91;5009530;28;20112;-63
2022/05/29 00:21:21;;;;;;;4.68;2.10;;;;;;;12.97;86.99;99875.41;5009666;28;20359;-64
2022/05/29 00:23:49;;;;;;;4.22;2.03;;;;;;;13.03;86.85;99869.81;5009191;28;20050;-63
2022/05/29 00:26:16;;;;;;;8.38;1.98;;;;;;;13.13;86.31;99875.63;5003484;28;20149;-63
2022/05/29 00:28:43;;;;;;;3.30;2.22;;;;;;;13.23;84.77;99866.25;4991407;28;20034;-63
2022/05/29 00:31:09;;;;;;;2.53;1.60;;;;;;;13.33;83.77;99861.38;4992086;28;20022;-63
2022/05/29 00:33:34;;;;;;;4.95;2.20;;;;;;;13.41;82.75;99853.88;4991312;28;20038;-64
2022/05/29 00:35:59;;;;;;;3.45;1.95;;;;;;;13.47;81.90;99859.78;4991492;28;20360;-63
2022/05/29 00:38:27;;;;;;;7.63;2.08;;;;;;;13.49;81.36;99851.72;4991218;28;20031;-64
2022/05/29 00:40:56;;;;;;;5.85;2.10;;;;;;;13.53;79.73;99853.28;4995025;28;20037;-64
2022/05/29 00:43:21;;;;;;;2.95;1.70;;;;;;;13.57;77.63;99844.19;4995075;28;20030;-64
2022/05/29 00:45:57;;;;;;;5.53;1.67;;;;;;;13.59;77.70;99853.84;4995268;28;20501;-64
2022/05/29 00:48:23;;;;;;;2.55;1.60;;;;;;;13.51;77.39;99833.81;4995147;28;20022;-64
2022/05/29 00:50:51;;;;;;;5.20;1.90;;;;;;;13.57;77.21;99846.88;4994929;28;20034;-64
2022/05/29 00:53:17;;;;;;;2.13;1.42;;;;;;;13.55;76.20;99836.25;4977533;28;20063;-64
2022/05/29 00:55:49;;;;;;;2.83;1.90;;;;;;;13.67;76.97;99842.81;4994994;28;20114;-64
2022/05/29 00:58:16;;;;;;;2.60;1.45;;;;;;;13.73;74.87;99839.84;4994113;28;20026;-64
2022/05/29 01:00:41;;;;;;;2.38;1.33;;;;;;;13.80;72.85;99838.63;4992930;28;20521;-64
2022/05/29 01:03:07;;;;;;;2.10;1.75;;;;;;;13.79;71.81;99823.53;4992696;28;20030;-64
2022/05/29 01:05:35;;;;;;;2.13;1.25;;;;;;;13.82;72.44;99826.03;5004750;28;20117;-64
2022/05/29 01:08:03;;;;;;;2.55;1.20;;;;;;;13.81;72.93;99824.28;5011429;28;20037;-64
2022/05/29 01:10:47;;;;;;;3.75;1.58;;;;;;;13.83;71.43;99825.09;5012412;28;20080;-64
2022/05/29 01:13:54;;;;;;;4.00;1.52;;;;;;;13.82;71.74;99826.03;5012771;28;20492;-63
2022/05/29 01:16:34;;;;;;;1.70;1.15;;;;;;;13.82;71.34;99829.56;4991725;28;20072;-63
2022/05/29 01:19:32;;;;;;;1.42;1.25;;;;;;;13.83;71.32;99820.63;5014059;28;20026;-63
2022/05/29 01:22:03;;;;;;;2.08;1.20;;;;;;;13.83;71.18;99825.97;5014063;28;20115;-63
2022/05/29 01:24:55;;;;;;;2.30;1.25;;;;;;;13.77;71.39;99812.88;5012637;28;20050;-64
2022/05/29 01:27:44;;;;;;;3.40;1.25;;;;;;;13.89;70.80;99825.66;4997388;28;20026;-63
2022/05/29 01:30:23;;;;;;;2.70;1.27;;;;;;;13.87;71.70;99816.00;5012040;28;20017;-63
2022/05/29 01:33:10;;;;;;;3.95;1.30;;;;;;;13.88;70.67;99818.59;5012909;28;20052;-63
2022/05/29 01:35:47;;;;;;;2.35;1.50;;;;;;;13.89;69.65;99814.97;5014279;28;20041;-63
2022/05/29 01:38:32;;;;;;;4.05;1.20;;;;;;;13.91;69.55;99801.50;5013685;28;20402;-63
2022/05/29 01:41:07;;;;;;;3.33;1.42;;;;;;;13.95;67.97;99797.75;5012613;28;20029;-64
2022/05/29 01:43:43;;;;;;;3.47;1.70;;;;;;;13.91;68.82;99798.84;5010251;28;20107;-64
2022/05/29 01:46:22;;;;;;;2.47;1.35;;;;;;;13.87;69.99;99798.13;5011474;28;20036;-64
2022/05/29 01:49:04;;;;;;;7.88;1.52;;;;;;;13.86;68.79;99787.50;5011667;28;20049;-64
2022/05/29 01:51:38;;;;;;;3.17;1.10;;;;;;;13.89;65.62;99792.69;5011114;28;20157;-64
2022/05/29 01:54:03;;;;;;;11.05;1.45;;;;;;;13.79;65.77;99791.44;5011622;28;20026;-64
2022/05/29 01:56:36;;;;;;;5.75;1.25;;;;;;;13.76;65.64;99791.56;5011054;28;20478;-64
2022/05/29 01:59:10;;;;;;;1.30;1.00;;;;;;;13.76;64.81;99787.09;5013280;28;20486;-64
2022/05/29 02:01:41;;;;;;;3.45;1.20;;;;;;;13.76;65.52;99787.09;5013368;28;20022;-64
2022/05/29 02:04:13;;;;;;;2.25;1.15;;;;;;;13.73;63.94;99789.06;5013359;28;20070;-64
2022/05/29 02:09:35;;;;;;;4.55;1.33;;;;;;;13.72;63.82;99780.16;5013058;28;20037;-64
2022/05/29 02:12:01;;;;;;;4.80;1.10;;;;;;;13.68;65.38;99777.72;5013172;28;20029;-64
2022/05/29 02:14:34;;;;;;;2.80;1.10;;;;;;;13.63;64.96;99769.06;5012981;28;20034;-64
2022/05/29 02:17:09;;;;;;;6.47;1.30;;;;;;;13.64;62.74;99781.50;5013161;28;20457;-64
2022/05/29 02:19:45;;;;;;;3.60;1.38;;;;;;;13.63;62.43;99779.75;5012766;28;20508;-65
2022/05/29 02:22:14;;;;;;;3.42;1.10;;;;;;;13.65;62.18;99775.19;5013274;28;20064;-64
2022/05/29 02:24:46;;;;;;;5.22;1.20;;;;;;;13.65;63.46;99767.19;5012859;28;20477;-64
2022/05/29 02:27:21;;;;;;;4.60;1.17;;;;;;;13.65;62.65;99768.06;4999051;28;20030;-64
2022/05/29 02:29:47;;;;;;;2.47;0.90;;;;;;;13.63;62.67;99763.72;4993225;28;20029;-64
2022/05/29 02:32:32;;;;;;;7.93;1.67;;;;;;;13.67;64.32;99759.97;4993214;28;20118;-64
2022/05/29 02:35:12;;;;;;;4.72;1.10;;;;;;;13.69;63.90;99758.09;4993096;28;20030;-64
2022/05/29 02:37:55;;;;;;;5.90;2.00;;;;;;;13.65;63.97;99751.16;4993153;28;20557;-64
2022/05/29 02:40:25;;;;;;;;;;;;;;;13.59;64.17;99751.47;4993576;28;20065;-64
2022/05/29 02:43:06;;;;;;;2.95;1.00;;;;;;;13.53;64.19;99749.06;4992961;28;19913;-64
2022/05/29 02:45:38;;;;;;;2.20;1.13;;;;;;;13.48;62.46;99738.59;4992695;28;20030;-64
2022/05/29 02:48:15;;;;;;;7.53;1.50;;;;;;;13.48;60.62;99743.06;4992951;28;20033;-64
2022/05/29 02:50:52;;;;;;;4.20;0.90;;;;;;;13.52;61.33;99750.03;4993103;28;20093;-64
2022/05/29 02:53:18;;;;;;;2.92;1.25;;;;;;;13.58;60.32;99750.59;4992867;28;20033;-64
2022/05/29 02:55:44;;;;;;;3.65;1.23;;;;;;;13.54;59.18;99732.09;4992659;28;20034;-64
2022/05/29 02:58:24;;;;;;;3.25;1.08;;;;;;;13.66;58.67;99740.38;5003049;28;20034;-64
2022/05/29 03:01:04;;;;;;;3.65;1.00;;;;;;;13.69;60.64;99739.38;5012348;28;20440;-64
2022/05/29 03:03:38;;;;;;;3.42;0.93;;;;;;;13.65;61.42;99740.47;5011644;28;20104;-65
2022/05/29 03:06:41;;;;;;;5.38;1.58;;;;;;;13.55;61.88;99718.66;5012315;28;20030;-64
2022/05/29 03:09:31;;;;;;;4.60;1.30;;;;;;;13.61;61.39;99734.38;5012174;28;20092;-64
2022/05/29 03:11:56;;;;;;;6.68;1.27;;;;;;;13.57;60.58;99731.94;5012331;28;20092;-64
2022/05/29 03:14:48;;;;;;;4.07;1.52;;;;;;;13.54;61.73;99732.09;5011938;28;20109;-64
2022/05/29 03:17:33;;;;;;;9.27;1.45;;;;;;;13.57;60.44;99726.59;5012192;28;20477;-64
2022/05/29 03:20:15;;;;;;;1.98;1.20;;;;;;;13.49;60.66;99721.66;5011884;28;20050;-63
2022/05/29 03:22:59;;;;;;;4.68;1.50;;;;;;;13.59;60.36;99722.06;5012616;28;20124;-64
2022/05/29 03:25:46;;;;;;;4.55;1.23;;;;;;;13.63;59.26;99726.28;5011784;28;20386;-64
2022/05/29 03:28:19;;;;;;;3.65;1.20;;;;;;;13.61;59.67;99728.16;4992536;28;20034;-64
2022/05/29 03:30:49;;;;;;;2.97;1.23;;;;;;;13.65;59.84;99740.47;4992298;28;20474;-64
2022/05/29 03:33:15;;;;;;;4.28;1.55;;;;;;;13.71;59.50;99730.31;5011121;28;20026;-64
2022/05/29 03:35:43;;;;;;;25.20;2.92;;;;;;;13.75;60.48;99741.72;5011555;28;20047;-64
2022/05/29 03:38:09;;;;;;;4.03;1.20;;;;;;;13.69;62.22;99745.56;5011188;28;20034;-64
2022/05/29 03:40:34;;;;;;;4.25;1.55;;;;;;;13.66;64.98;99758.22;5011514;28;20432;-64
2022/05/29 03:43:00;;;;;;;6.63;2.15;;;;;;;13.63;66.69;99753.91;5011641;28;20497;-64
2022/05/29 03:45:26;;;;;;;3.67;1.73;;;;;;;13.62;67.64;99759.31;5011244;28;20040;-64
2022/05/29 03:47:52;;;;;;;3.47;1.40;;;;;;;13.59;67.83;99756.81;5010955;28;20072;-64
2022/05/29 03:50:20;;;;;;;8.70;1.60;;;;;;;13.62;67.73;99751.31;5009615;28;20047;-64
2022/05/29 03:52:47;;;;;;;2.92;1.85;;;;;;;13.63;69.75;99747.69;5010005;28;20039;-64
2022/05/29 03:55:14;;;;;;;3.15;1.50;;;;;;;13.59;70.60;99751.47;5010392;28;20571;-64
2022/05/29 03:57:40;;;;;;;4.13;1.27;;;;;;;13.57;70.36;99748.00;5011470;28;20033;-64
2022/05/29 04:00:09;;;;;;;3.53;1.15;;;;;;;13.56;71.04;99751.63;5011624;28;20036;-64
2022/05/29 04:02:34;;;;;;;4.97;2.15;;;;;;;13.55;69.49;99749.88;5010886;28;20112;-64
2022/05/29 04:05:00;;;;;;;2.35;1.10;;;;;;;13.60;67.88;99748.72;5011121;28;20101;-64
2022/05/29 04:12:54;;;;;;;3.53;1.45;;;;;;;13.67;66.97;99739.47;5011854;28;20100;-64
2022/05/29 04:15:19;;;;;;;6.95;1.52;;;;;;;13.74;66.27;99734.66;5015141;28;20029;-64
2022/05/29 04:17:45;;;;;;;3.30;1.05;;;;;;;13.66;67.30;99744.84;5015289;28;20026;-64
2022/05/29 04:20:11;;;;;;;4.97;1.33;;;;;;;13.62;68.05;99752.19;5015390;28;20030;-64
2022/05/29 04:22:36;;;;;;;7.93;1.60;;;;;;;13.61;69.73;99757.56;5014841;28;20034;-64
2022/05/29 04:25:02;;;;;;;6.45;1.77;;;;;;;13.58;70.68;99752.38;5013884;28;20165;-64
2022/05/29 04:27:27;;;;;;;3.20;1.20;;;;;;;13.60;72.81;99764.75;4997639;28;20062;-64
2022/05/29 04:29:52;;;;;;;4.28;1.30;;;;;;;13.59;71.40;99762.16;4993841;28;20178;-64
2022/05/29 04:35:02;;;;;;;4.82;1.38;;;;;;;13.45;73.56;99764.59;4993919;28;20045;-64
2022/05/29 04:37:29;;;;;;;6.93;3.50;;;;;;;13.42;75.15;99760.28;4994189;28;20083;-64
2022/05/29 04:39:54;;;;;;;2.85;1.70;;;;;;;13.41;74.06;99768.38;4995044;28;20497;-64
2022/05/29 04:42:20;;;;;;;4.93;2.58;;;;;;;13.43;73.84;99771.81;4995136;28;20054;-64
2022/05/29 04:44:45;;;;;;;4.90;1.77;;;;;;;13.35;74.82;99771.31;4995205;28;20474;-64
2022/05/29 04:47:11;;;;;;;2.90;1.27;;;;;;;13.35;75.46;99763.31;4995160;28;20030;-64
2022/05/29 04:49:37;;;;;;;4.32;1.65;;;;;;;13.36;75.49;99770.41;4995036;28;20113;-64
2022/05/29 04:52:05;;;;;;;4.43;1.65;;;;;;;13.43;74.91;99766.47;4994423;28;20038;-64
2022/05/29 04:54:33;;;;;;;3.30;1.35;;;;;;;13.46;76.92;99769.03;4993007;28;20026;-64
2022/05/29 04:56:59;;;;;;;5.95;1.60;;;;;;;13.46;77.56;99771.69;4993146;28;20133;-64
2022/05/29 04:59:24;;;;;;;6.65;1.95;;;;;;;13.52;77.24;99760.72;4993312;28;20105;-64
2022/05/29 05:01:50;;;;;;;2.55;1.50;;;;;;;13.56;77.49;99756.97;4994970;28;20050;-64
2022/05/29 05:04:15;;;;;;;3.15;1.38;;;;;;;13.57;75.52;99764.03;4998609;28;20057;-64
2022/05/29 05:06:40;;;;;;;3.45;1.58;;;;;;;13.65;74.36;99764.50;4994622;28;20026;-64
2022/05/29 05:09:06;;;;;;;4.03;1.30;;;;;;;13.67;72.83;99759.97;4994653;28;20089;-64
2022/05/29 05:11:32;;;;;;;3.33;1.30;;;;;;;13.69;71.54;99769.63;4994770;28;20121;-64
2022/05/29 05:13:57;;;;;;;5.85;1.80;;;;;;;13.74;70.27;99764.91;4994954;28;20022;-63
2022/05/29 05:16:23;;;;;;;5.78;2.00;;;;;;;13.76;71.19;99776.41;4996317;28;20034;-64
2022/05/29 05:18:48;;;;;;;7.95;2.17;;;;;;;13.75;73.51;99779.16;4996548;28;20029;-64
2022/05/29 05:21:13;;;;;;;4.35;1.42;;;;;;;13.80;73.13;99777.13;5014063;28;20026;-64
2022/05/29 05:23:40;;;;;;;4.30;1.38;;;;;;;13.85;72.02;99765.28;5013629;28;20057;-64
2022/05/29 05:26:12;;;;;;;3.72;1.67;;;;;;;13.94;71.37;99774.63;5007993;28;20454;-64
2022/05/29 05:28:38;;;;;;;6.88;1.50;;;;;;;13.98;70.96;99776.22;4994581;28;20359;-64
2022/05/29 05:31:04;;;;;;;3.92;1.70;;;;;;;14.03;70.47;99758.13;4994257;28;20101;-64
2022/05/29 05:33:29;;;;;;;8.15;1.88;;;;;;;14.05;68.96;99773.13;4994310;28;20045;-64
2022/05/29 05:35:56;;;;;;;8.65;2.03;;;;;;;14.15;68.43;99770.88;4994244;28;20127;-64
2022/05/29 05:38:22;;;;;;;4.88;1.30;;;;;;;14.26;66.70;99773.91;5010053;28;20022;-64
2022/05/29 05:40:47;;;;;;;5.90;1.65;;;;;;;14.43;66.40;99779.25;5013640;28;20096;-64
2022/05/29 05:43:12;;;;;;;3.80;1.63;;;;;;;14.47;66.00;99780.81;5013308;28;20084;-64
2022/05/29 05:45:42;;;;;;;3.83;1.70;;;;;;;14.44;66.46;99771.16;5013190;28;20108;-64
2022/05/29 05:48:08;;;;;;;10.50;2.80;;;;;;;14.56;65.38;99790.19;5013531;28;20093;-64
2022/05/29 05:50:34;;;;;;;5.45;1.77;;;;;;;14.53;65.10;99772.44;5013563;28;20440;-63
2022/05/29 05:53:00;;;;;;;4.63;1.48;;;;;;;14.58;65.40;99790.97;5013500;28;20029;-64
2022/05/29 05:55:25;;;;;;;4.63;1.58;;;;;;;14.57;65.50;99791.91;5013474;28;20029;-64
2022/05/29 05:57:52;;;;;;;4.07;1.33;;;;;;;14.51;66.03;99793.09;5013500;28;20113;-64
2022/05/29 06:00:18;;;;;;;2.63;1.20;;;;;;;14.40;65.74;99790.09;5012814;28;20453;-64
2022/05/29 06:02:44;;;;;;;5.80;1.23;;;;;;;14.16;65.22;99781.50;5011502;28;20065;-63
2022/05/29 06:05:12;;;;;;;2.50;1.23;;;;;;;14.23;65.59;99790.09;5011247;28;20025;-63
2022/05/29 06:07:38;;;;;;;6.65;1.60;;;;;;;14.33;65.18;99791.38;5011105;28;20034;-63
2022/05/29 06:10:04;;;;;;;5.80;1.80;;;;;;;14.48;65.10;99790.56;5011331;28;20406;-63
2022/05/29 06:12:29;;;;;;;5.68;2.00;;;;;;;14.45;64.17;99791.59;5011500;28;20014;-63
2022/05/29 06:14:57;;;;;;;2.47;1.10;;;;;;;14.39;64.16;99793.72;5010839;28;20026;-63
2022/05/29 06:17:23;;;;;;;4.30;1.40;;;;;;;14.52;64.04;99794.81;5012605;28;20033;-63
2022/05/29 06:19:48;;;;;;;6.70;1.25;;;;;;;14.68;65.12;99801.09;5013335;28;20355;-63
2022/05/29 06:22:13;;;;;;;5.80;1.48;;;;;;;14.77;64.48;99795.28;5012616;28;20029;-63
2022/05/29 06:24:39;;;;;;;4.97;1.88;;;;;;;14.70;63.60;99799.22;5012728;28;20069;-63
2022/05/29 06:27:05;;;;;;;2.25;1.20;;;;;;;14.81;63.63;99795.97;5000054;28;20042;-63
2022/05/29 06:29:32;;;;;;;5.70;1.40;;;;;;;14.79;64.20;99796.06;4993246;28;20014;-63
2022/05/29 06:32:03;;;;;;;6.85;1.50;;;;;;;14.73;62.98;99791.00;4993131;28;20022;-63
2022/05/29 06:34:29;;;;;;;8.35;1.40;;;;;;;14.50;64.83;99788.69;4993065;28;20434;-63
2022/05/29 06:36:55;;;;;;;3.00;1.40;;;;;;;14.51;64.33;99791.28;4992952;28;20030;-63
2022/05/29 06:39:22;;;;;;;5.55;1.13;;;;;;;14.34;64.82;99790.44;4993163;28;20034;-63
2022/05/29 06:41:47;;;;;;;4.28;1.60;;;;;;;14.26;65.99;99792.63;4993022;28;20030;-63
2022/05/29 06:44:13;;;;;;;5.18;2.05;;;;;;;14.16;67.54;99807.38;4992970;28;20063;-63
2022/05/29 06:46:38;;;;;;;5.20;1.38;;;;;;;14.07;67.60;99799.81;4993088;28;20049;-63
2022/05/29 06:49:04;;;;;;;3.10;1.45;;;;;;;14.07;67.33;99813.16;4992843;28;20041;-63
2022/05/29 06:51:29;;;;;;;4.35;1.35;;;;;;;13.86;66.95;99792.84;4992978;28;20446;-63
2022/05/29 06:53:56;;;;;;;4.40;1.48;;;;;;;13.87;69.34;99805.31;4992751;28;20038;-64
2022/05/29 06:56:22;;;;;;;3.95;1.45;;;;;;;13.95;70.52;99819.16;4992600;28;20022;-63
2022/05/29 06:58:48;;;;;;;5.55;2.05;;;;;;;13.79;74.58;99812.84;4992345;28;20045;-63
2022/05/29 07:06:59;;;;;;;5.10;1.63;;;;;;;12.79;85.13;99796.16;5000057;28;20396;-62
2022/05/29 07:09:24;;;;;;;5.65;1.70;;;;;;;12.67;88.55;99812.72;5012138;28;20465;-61
2022/05/29 07:12:13;;;;;;;8.43;2.25;;;;;;;12.65;90.94;99825.25;5011915;28;20087;-61
2022/05/29 07:14:42;;;;;;;9.50;2.08;;;;;;;12.70;92.49;99820.56;5011952;28;20021;-62
2022/05/29 07:17:08;;;;;;;3.35;1.88;;;;;;;12.61;94.12;99822.78;5011861;28;20509;-61
2022/05/29 07:19:34;;;;;;;3.20;1.60;;;;;;;12.58;94.35;99815.81;5011888;28;20026;-62
2022/05/29 07:22:00;;;;;;;2.53;1.52;;;;;;;12.61;95.40;99815.66;5011415;28;20536;-62
2022/05/29 07:24:28;;;;;;;3.03;1.50;;;;;;;12.58;94.43;99818.47;5011458;28;20056;-62
2022/05/29 07:26:54;;;;;;;5.00;1.70;;;;;;;12.46;94.03;99800.31;5000098;28;20026;-62
2022/05/29 07:29:23;;;;;;;4.30;1.67;;;;;;;12.54;94.97;99811.53;4992274;28;20026;-62
2022/05/29 07:31:51;;;;;;;4.25;1.90;;;;;;;12.58;96.12;99798.91;4992264;28;20053;-62
2022/05/29 07:34:17;;;;;;;2.80;1.80;;;;;;;12.72;95.72;99816.03;4991925;28;20054;-62
2022/05/29 07:36:42;;;;;;;6.38;2.60;;;;;;;12.79;94.93;99812.19;4974421;28;20073;-62
2022/05/29 07:39:09;;;;;;;4.65;2.70;;;;;;;12.91;94.90;99822.31;4992132;28;20022;-62
2022/05/29 07:44:18;;;;;;;3.45;1.88;;;;;;;13.14;94.84;99818.63;5011477;28;20024;-62
2022/05/29 07:46:44;;;;;;;6.05;2.20;;;;;;;13.13;92.22;99817.75;5011125;28;20026;-62
2022/05/29 07:49:09;;;;;;;8.20;2.20;;;;;;;13.20;92.48;99824.53;5011016;28;20028;-62
2022/05/29 07:51:35;;;;;;;3.45;2.00;;;;;;;13.16;92.89;99825.59;5010960;28;20559;-62
2022/05/29 07:54:00;;;;;;;5.20;2.08;;;;;;;13.25;92.82;99824.31;5011417;28;20022;-62
2022/05/29 07:56:26;;;;;;;8.05;2.00;;;;;;;13.28;91.95;99831.34;5011331;28;20065;-62
2022/05/29 07:58:52;;;;;;;4.28;1.67;;;;;;;13.26;92.43;99828.75;5010853;28;20412;-62
2022/05/29 08:01:19;;;;;;;4.10;1.73;;;;;;;13.14;90.45;99837.31;5010978;28;20109;-62
2022/05/29 08:03:44;;;;;;;3.30;1.73;;;;;;;13.15;89.88;99836.38;5011216;28;20046;-62
2022/05/29 08:06:10;;;;;;;4.88;2.25;;;;;;;13.13;90.74;99833.75;5011259;28;20080;-62
2022/05/29 08:08:36;;;;;;;4.55;2.03;;;;;;;13.24;91.14;99836.81;5011061;28;20032;-62
2022/05/29 08:11:02;;;;;;;4.50;2.10;;;;;;;13.36;91.29;99842.53;5011098;28;20465;-62
2022/05/29 08:13:30;;;;;;;5.22;2.15;;;;;;;13.42;92.42;99835.09;5011066;28;20025;-62
2022/05/29 08:15:56;;;;;;;4.38;2.03;;;;;;;13.47;89.56;99837.53;5010209;28;20022;-62
2022/05/29 08:18:22;;;;;;;7.75;2.42;;;;;;;13.51;90.43;99839.16;5011101;28;20026;-62
2022/05/29 08:20:47;;;;;;;5.65;2.55;;;;;;;13.58;89.23;99837.91;5010994;28;20030;-63
2022/05/29 08:23:12;;;;;;;7.75;2.33;;;;;;;13.73;88.83;99847.84;5010977;28;20370;-62
2022/05/29 08:31:06;;;;;;;3.28;2.00;;;;;;;14.97;87.58;99835.25;5011456;28;20375;-63
2022/05/29 08:33:34;;;;;;;5.95;2.35;;;;;;;16.00;84.81;99830.38;5010871;28;20037;-62
2022/05/29 08:36:12;;;;;;;3.30;2.22;;;;;;;16.92;74.41;99836.47;5009782;28;20069;-63
2022/05/29 08:38:42;;;;;;;3.85;1.88;;;;;;;17.91;73.19;99834.59;5009230;28;20077;-63
2022/05/29 08:41:14;;;;;;;4.40;1.67;;;;;;;18.60;70.58;99830.91;5008999;28;20061;-63
2022/05/29 08:43:55;;;;;;;3.40;1.35;;;;;;;19.03;62.48;99825.13;5008423;28;20408;-63
2022/05/29 08:46:30;;;;;;;3.22;1.65;;;;;;;19.42;58.37;99832.28;5007925;28;20036;-63
2022/05/29 08:48:56;;;;;;;4.15;1.80;;;;;;;19.79;59.56;99828.63;5008017;28;20030;-63
2022/05/29 08:51:40;;;;;;;6.53;1.65;;;;;;;20.09;57.47;99823.69;5008573;28;20030;-63
2022/05/29 08:54:08;;;;;;;;;;;;;;;20.35;53.40;99830.72;5010123;28;20026;-63
2022/05/29 08:56:57;;;;;;;3.42;2.00;;;;;;;20.43;53.20;99831.00;5009398;28;19936;-63
2022/05/29 08:59:38;;;;;;;3.03;1.70;;;;;;;20.51;58.16;99820.47;5009591;28;20394;-63
2022/05/29 09:02:31;;;;;;;8.32;1.92;;;;;;;20.86;57.43;99810.53;5013437;28;20036;-62
2022/05/29 09:05:01;;;;;;;5.40;1.95;;;;;;;20.82;58.90;99822.53;5013133;28;20404;-62
2022/05/29 09:07:33;;;;;;;6.18;1.83;;;;;;;20.69;53.88;99807.41;5012674;28;20181;-63
2022/05/29 09:10:33;;;;;;;6.50;1.90;;;;;;;20.47;58.76;99813.59;5012759;28;20053;-63
2022/05/29 09:13:02;;;;;;;5.50;2.00;;;;;;;20.28;56.68;99813.25;5012321;28;20129;-62
2022/05/29 09:15:36;;;;;;;3.80;1.88;;;;;;;20.28;54.74;99818.66;5012471;28;20034;-62
2022/05/29 09:18:11;;;;;;;3.47;1.38;;;;;;;20.67;56.47;99809.38;5014282;28;20040;-62
2022/05/29 09:20:46;;;;;;;9.68;2.38;;;;;;;20.76;51.46;99812.22;5013874;28;20362;-63
2022/05/29 09:23:18;;;;;;;5.63;1.60;;;;;;;20.72;51.16;99816.13;5012957;28;20025;-63
2022/05/29 09:25:44;;;;;;;4.07;1.75;;;;;;;20.75;51.57;99813.19;5010426;28;20057;-63
2022/05/29 09:28:24;;;;;;;8.35;1.77;;;;;;;21.22;52.52;99814.06;4992276;28;20564;-63
2022/05/29 09:30:54;;;;;;;6.45;1.80;;;;;;;20.92;49.48;99812.72;4992224;28;20062;-63
2022/05/29 09:33:27;;;;;;;4.88;1.30;;;;;;;20.63;50.21;99808.72;4992487;28;20114;-64
2022/05/29 09:36:02;;;;;;;3.60;1.52;;;;;;;20.99;51.49;99804.19;4998880;28;20092;-64
2022/05/29 09:38:39;;;;;;;9.70;1.67;;;;;;;21.43;49.47;99812.34;5012904;28;20033;-63
2022/05/29 09:41:18;;;;;;;3.60;1.98;;;;;;;21.11;48.98;99814.03;5013831;28;20057;-63
2022/05/29 09:44:05;;;;;;;5.00;1.88;;;;;;;21.82;49.69;99817.25;5013884;28;20040;-63
2022/05/29 09:46:33;;;;;;;3.17;1.63;;;;;;;21.74;47.37;99820.56;5012412;28;20048;-64
2022/05/29 09:52:11;;;;;;;3.13;1.42;;;;;;;21.06;47.32;99808.13;5011917;28;20032;-64
2022/05/29 09:54:58;;;;;;;2.58;1.85;;;;;;;21.25;47.01;99805.69;4984250;28;20037;-64
2022/05/29 09:57:28;;;;;;;2.42;1.25;;;;;;;21.42;48.59;99803.34;5004478;28;20048;-64
2022/05/29 10:00:02;;;;;;;7.57;1.40;;;;;;;21.19;46.55;99800.75;5012357;28;20030;-64
2022/05/29 10:02:39;;;;;;;2.88;1.33;;;;;;;21.38;49.00;99801.91;4995916;28;20032;-64
2022/05/29 10:05:09;;;;;;;4.78;1.50;;;;;;;21.51;49.33;99801.75;5013180;28;20030;-63
2022/05/29 10:07:45;;;;;;;4.47;1.60;;;;;;;21.69;46.02;99786.72;5013281;28;20029;-64
2022/05/29 10:10:24;;;;;;;4.50;1.20;;;;;;;22.32;45.80;99802.25;5013383;28;20097;-63
2022/05/29 10:12:51;;;;;;;3.42;1.38;;;;;;;22.75;42.61;99787.63;5012939;28;20056;-63
2022/05/29 10:15:28;;;;;;;2.75;1.27;;;;;;;23.06;42.26;99785.84;5013128;28;20030;-63
2022/05/29 10:18:00;;;;;;;5.47;1.40;;;;;;;23.63;42.67;99779.84;5012850;28;20030;-63
2022/05/29 10:20:38;;;;;;;2.80;1.23;;;;;;;23.55;41.17;99780.56;5012644;28;20058;-63
2022/05/29 10:23:06;;;;;;;2.13;1.02;;;;;;;22.63;45.09;99777.88;5012679;28;20109;-62
2022/05/29 10:25:38;;;;;;;4.63;1.20;;;;;;;22.43;41.60;99766.94;5012159;28;20049;-63
2022/05/29 10:28:14;;;;;;;4.13;1.23;;;;;;;22.87;43.70;99778.44;4993328;28;20105;-63
2022/05/29 10:31:00;;;;;;;4.38;1.42;;;;;;;22.65;43.25;99769.59;4993290;28;20042;-63
2022/05/29 10:33:29;;;;;;;3.22;1.60;;;;;;;22.88;42.52;99766.59;4992606;28;20548;-62
2022/05/29 10:36:11;;;;;;;6.35;1.60;;;;;;;23.33;40.01;99761.72;4991762;28;20030;-63
2022/05/29 10:38:37;;;;;;;2.45;1.30;;;;;;;23.10;42.77;99771.88;4991919;28;20765;-63
2022/05/29 10:41:05;;;;;;;2.65;1.23;;;;;;;22.48;40.22;99762.88;4991768;28;20033;-63
2022/05/29 10:43:37;;;;;;;2.72;1.20;;;;;;;22.44;43.39;99765.97;4991439;28;20153;-62
2022/05/29 10:46:12;;;;;;;2.08;1.10;;;;;;;22.35;44.82;99767.63;4991210;28;20038;-62
2022/05/29 10:48:57;;;;;;;4.35;1.48;;;;;;;22.45;43.19;99757.72;4991536;28;20489;-62
2022/05/29 10:51:25;;;;;;;2.28;1.45;;;;;;;23.03;44.54;99748.97;4992977;28;20585;-63
2022/05/29 10:54:01;;;;;;;4.13;1.73;;;;;;;23.43;40.02;99754.47;4992759;28;20030;-63
2022/05/29 10:56:45;;;;;;;4.03;1.17;;;;;;;23.73;39.34;99759.00;4993056;28;20366;-63
2022/05/29 10:59:47;;;;;;;5.60;1.35;;;;;;;24.00;39.35;99751.09;4992699;28;20110;-63
2022/05/29 11:05:20;;;;;;;2.20;1.17;;;;;;;23.19;38.86;99743.94;5004963;28;20091;-62
2022/05/29 11:07:56;;;;;;;2.90;1.23;;;;;;;22.73;40.59;99745.38;5011796;28;20045;-63
2022/05/29 11:10:45;;;;;;;6.30;1.40;;;;;;;23.17;39.13;99740.50;5012287;28;20018;-63
2022/05/29 11:13:39;;;;;;;2.47;1.52;;;;;;;23.38;38.37;99735.91;4981007;28;20073;-63
2022/05/29 11:16:10;;;;;;;3.40;1.25;;;;;;;23.65;36.48;99740.72;5011899;28;20401;-63
2022/05/29 11:18:55;;;;;;;1.98;1.05;;;;;;;23.74;38.41;99730.88;4992287;28;20041;-63
2022/05/29 11:21:25;;;;;;;3.28;1.10;;;;;;;23.78;36.93;99730.44;4992206;28;20030;-63
2022/05/29 11:24:46;;;;;;;1.70;1.15;;;;;;;23.94;38.59;99724.44;4991364;28;20099;-62
2022/05/29 11:27:48;;;;;;;2.25;1.10;;;;;;;25.00;37.79;99731.59;4888723;29;20044;-63
2022/05/29 11:30:34;;;;;;;3.20;1.10;;;;;;;25.02;38.57;99729.59;4894130;29;20036;-63
2022/05/29 11:33:16;;;;;;;5.20;1.17;;;;;;;24.73;35.00;99712.47;5007622;28;20057;-63
2022/05/29 11:36:05;;;;;;;2.40;0.98;;;;;;;23.76;35.87;99715.25;5011610;28;20026;-63
2022/05/29 11:38:50;;;;;;;3.28;1.00;;;;;;;24.30;39.22;99716.50;5012246;28;20481;-62
2022/05/29 11:41:48;;;;;;;3.47;0.93;;;;;;;25.09;35.86;99708.94;5011586;28;20038;-62
2022/05/29 11:44:25;;;;;;;2.78;0.80;;;;;;;25.38;36.05;99710.56;5011379;28;20048;-63
2022/05/29 11:52:37;;;;;;;3.20;0.75;;;;;;;25.72;31.59;99706.19;5009556;28;20476;-63
2022/05/29 11:55:13;;;;;;;2.30;0.60;;;;;;;25.69;33.47;99709.25;5011379;28;20032;-63
2022/05/29 11:58:17;;;;;;;5.35;1.05;;;;;;;24.43;35.32;99710.78;4993832;28;20026;-63
2022/05/29 12:00:50;;;;;;;;;;;;;;;23.73;36.02;99704.69;4974280;28;20042;-63
2022/05/29 12:03:39;;;;;;;4.32;1.10;;;;;;;24.14;37.53;99693.59;5002075;28;19996;-63
2022/05/29 12:06:12;;;;;;;2.38;0.90;;;;;;;24.42;36.41;99698.16;5011271;28;20438;-64
2022/05/29 12:08:51;;;;;;;1.88;0.80;;;;;;;24.90;35.39;99689.94;5011309;28;20025;-64
2022/05/29 12:11:39;;;;;;;1.60;0.65;;;;;;;25.82;35.92;99698.81;5010909;28;20398;-63
2022/05/29 12:14:10;;;;;;;4.75;0.77;;;;;;;26.03;32.72;99692.25;5011235;28;20485;-63
2022/05/29 12:16:38;;;;;;;2.88;0.98;;;;;;;26.59;32.57;99690.03;5009355;28;20017;-63
2022/05/29 12:19:11;;;;;;;4.47;0.85;;;;;;;26.26;33.61;99685.31;5009219;28;20105;-64
2022/05/29 12:21:51;;;;;;;4.00;1.08;;;;;;;25.92;33.12;99687.84;5009328;28;20477;-63
2022/05/29 12:24:22;;;;;;;7.47;1.10;;;;;;;24.83;33.98;99672.50;5008743;28;20120;-63
2022/05/29 12:26:57;;;;;;;2.70;0.90;;;;;;;23.58;36.72;99681.63;5009367;28;20116;-63
2022/05/29 12:29:29;;;;;;;2.67;1.05;;;;;;;23.47;37.93;99681.75;5009164;28;20460;-64
2022/05/29 12:32:22;;;;;;;5.95;1.10;;;;;;;24.48;37.29;99673.13;5011309;28;20113;-63
2022/05/29 12:34:59;;;;;;;5.10;1.10;;;;;;;25.35;35.55;99677.31;4992568;28;20038;-63